Time;durP1;ratioP1;P1;durP2;ratioP2;P2;SDS_P1;SDS_P2;PMS_P1;PMS_P2;Temp;Humidity;BMP_temperature;BMP_pressure;BME280_temperature;BME280_humidity;BME280_pressure;Samples;Min_cycle;Max_cycle;Signal;HPM_P1;HPM_P2
2022/12/30 00:00:14;;;;;;;6.87;1.50;;;;;;;6.47;91.72;95378.19;5032042;28;20244;-80
2022/12/30 00:02:40;;;;;;;4.23;1.37;;;;;;;6.51;91.61;95387.28;5036207;28;20205;-80
2022/12/30 00:05:05;;;;;;;4.03;1.37;;;;;;;6.44;91.78;95386.16;5034300;28;20213;-80
2022/12/30 00:07:34;;;;;;;4.43;1.27;;;;;;;6.48;91.29;95385.78;5028391;28;20245;-80
2022/12/30 00:10:00;;;;;;;6.70;1.70;;;;;;;6.44;91.50;95389.53;5021874;28;20195;-80
2022/12/30 00:34:32;;;;;;;7.73;1.60;;;;;;;6.48;91.24;95403.03;5028199;28;20185;-80
2022/12/30 00:36:57;;;;;;;5.30;1.40;;;;;;;6.40;91.59;95398.50;5032670;28;20226;-80
2022/12/30 00:39:23;;;;;;;3.83;1.30;;;;;;;6.55;90.32;95408.50;5029916;28;20198;-80
2022/12/30 00:44:32;;;;;;;7.33;1.30;;;;;;;6.49;91.15;95410.63;5016982;28;20241;-78
2022/12/30 00:46:58;;;;;;;4.43;1.40;;;;;;;6.51;90.91;95415.66;5018525;28;20222;-80
2022/12/30 00:57:38;;;;;;;2.00;1.00;;;;;;;6.63;90.79;95426.75;5026152;28;20209;-80
2022/12/30 01:00:08;;;;;;;3.83;1.37;;;;;;;6.65;90.69;95441.16;5021803;28;20192;-80
2022/12/30 01:02:34;;;;;;;3.57;1.17;;;;;;;6.61;90.97;95438.94;5012592;28;20222;-80
2022/12/30 01:04:59;;;;;;;3.60;1.23;;;;;;;6.53;92.21;95442.97;5026079;28;20698;-80
2022/12/30 01:07:27;;;;;;;8.07;1.37;;;;;;;6.58;92.22;95440.03;5014817;28;20207;-80
2022/12/30 01:09:52;;;;;;;6.43;2.20;;;;;;;6.48;92.66;95444.31;5020826;28;20183;-80
2022/12/30 01:12:18;;;;;;;2.60;0.90;;;;;;;6.60;92.08;95437.31;5029305;28;20220;-79
2022/12/30 01:14:46;;;;;;;5.93;1.40;;;;;;;6.51;93.02;95450.03;5024070;28;20191;-80
2022/12/30 01:17:15;;;;;;;4.30;1.10;;;;;;;6.42;93.35;95444.78;5001033;28;20212;-79
2022/12/30 01:19:41;;;;;;;3.40;1.20;;;;;;;6.50;91.99;95445.00;5012639;28;20179;-80
2022/12/30 01:22:07;;;;;;;6.60;1.50;;;;;;;6.61;91.46;95444.94;4999209;28;20725;-80
2022/12/30 01:24:33;;;;;;;4.23;1.10;;;;;;;6.52;91.61;95443.09;5007435;28;20187;-79
2022/12/30 01:26:58;;;;;;;3.23;1.03;;;;;;;6.52;91.42;95456.81;5031184;28;20276;-79
2022/12/30 01:29:28;;;;;;;5.07;1.20;;;;;;;6.37;92.63;95465.00;5033463;28;20523;-80
2022/12/30 01:31:54;;;;;;;7.20;1.40;;;;;;;6.41;92.33;95469.78;5028229;28;20193;-80
2022/12/30 01:34:20;;;;;;;6.17;0.93;;;;;;;6.37;92.65;95473.56;5016832;28;20279;-80
2022/12/30 01:36:45;;;;;;;3.87;1.17;;;;;;;6.39;92.72;95474.25;5017018;28;20629;-80
2022/12/30 01:39:10;;;;;;;4.10;1.83;;;;;;;6.16;93.57;95478.66;5019344;28;20658;-79
2022/12/30 01:41:35;;;;;;;3.70;1.43;;;;;;;6.09;93.18;95474.09;5024728;28;20191;-79
2022/12/30 01:44:01;;;;;;;10.30;1.73;;;;;;;6.05;92.42;95472.72;5019353;28;20229;-79
2022/12/30 01:46:30;;;;;;;8.03;1.47;;;;;;;6.03;92.48;95474.63;5016566;28;20195;-81
2022/12/30 01:48:57;;;;;;;4.60;1.40;;;;;;;5.92;92.72;95478.84;5022195;28;20197;-81
2022/12/30 01:51:28;;;;;;;7.97;1.23;;;;;;;6.00;92.16;95483.38;5010889;28;20218;-80
2022/12/30 01:53:54;;;;;;;4.87;1.50;;;;;;;5.85;92.73;95474.28;5032095;28;20194;-80
2022/12/30 01:56:26;;;;;;;4.77;1.67;;;;;;;5.68;93.73;95462.72;5012743;28;20242;-79
2022/12/30 01:59:01;;;;;;;5.90;1.20;;;;;;;5.88;92.49;95454.22;5023862;28;20198;-79
2022/12/30 02:01:27;;;;;;;5.17;1.70;;;;;;;5.96;91.22;95451.88;5030560;28;20193;-79
2022/12/30 02:03:57;;;;;;;3.47;1.30;;;;;;;5.90;92.39;95454.94;5030665;28;20201;-80
2022/12/30 02:06:41;;;;;;;2.83;1.00;;;;;;;5.78;93.83;95460.22;5009596;28;20186;-80
2022/12/30 02:09:06;;;;;;;4.23;1.40;;;;;;;5.81;93.43;95462.56;5020489;28;20194;-80
2022/12/30 02:11:32;;;;;;;10.90;1.40;;;;;;;5.70;93.17;95463.41;5016525;28;20195;-80
2022/12/30 02:13:58;;;;;;;3.33;1.00;;;;;;;5.55;93.66;95469.72;5020901;28;20194;-80
2022/12/30 02:16:29;;;;;;;6.47;1.20;;;;;;;5.51;93.70;95466.59;5025628;28;20761;-81
2022/12/30 02:19:32;;;;;;;4.97;1.50;;;;;;;5.55;92.95;95465.41;5031411;28;20194;-81
2022/12/30 02:22:09;;;;;;;6.57;1.43;;;;;;;5.49;93.13;95480.53;5030137;28;20193;-81
2022/12/30 02:24:47;;;;;;;10.20;1.40;;;;;;;5.38;93.60;95478.75;5024967;28;20647;-81
2022/12/30 02:27:22;;;;;;;19.73;1.70;;;;;;;5.29;94.16;95485.44;5033866;28;20321;-82
2022/12/30 02:30:02;;;;;;;3.63;1.17;;;;;;;5.22;93.88;95484.28;5033012;28;20753;-80
2022/12/30 02:32:34;;;;;;;3.90;1.47;;;;;;;5.22;93.79;95470.59;5027859;28;20214;-81
2022/12/30 02:35:18;;;;;;;5.87;1.40;;;;;;;5.09;93.70;95474.06;5027965;28;20191;-80
2022/12/30 02:38:00;;;;;;;3.27;0.83;;;;;;;5.05;94.25;95469.28;5025175;28;20885;-81
2022/12/30 02:46:11;;;;;;;3.57;1.37;;;;;;;4.83;94.27;95473.47;5026599;28;20739;-81
2022/12/30 02:48:39;;;;;;;6.60;1.33;;;;;;;4.78;94.91;95488.44;5031633;28;20544;-80
2022/12/30 02:53:49;;;;;;;5.43;1.73;;;;;;;4.68;95.06;95505.47;5040694;28;20437;-82
2022/12/30 02:56:14;;;;;;;2.60;1.10;;;;;;;4.63;94.94;95509.31;5038232;28;20210;-80
2022/12/30 02:58:49;;;;;;;0.93;0.80;;;;;;;4.61;96.27;95509.44;5033620;28;20182;-80
2022/12/30 03:04:29;;;;;;;3.67;1.20;;;;;;;4.65;95.72;95510.84;5042454;28;20209;-81
2022/12/30 03:07:31;;;;;;;5.07;0.80;;;;;;;4.68;95.78;95512.34;4985201;28;20321;-81
2022/12/30 03:13:10;;;;;;;4.70;0.80;;;;;;;4.63;96.18;95512.69;5030768;28;20181;-79
2022/12/30 03:15:44;;;;;;;1.93;1.03;;;;;;;4.66;95.65;95517.59;5044243;28;20175;-78
2022/12/30 03:18:10;;;;;;;3.70;1.10;;;;;;;4.63;95.41;95523.00;5043860;28;20210;-79
2022/12/30 03:20:38;;;;;;;3.97;0.97;;;;;;;4.61;96.34;95518.91;5031046;28;20174;-80
2022/12/30 03:28:33;;;;;;;2.10;0.80;;;;;;;4.56;97.27;95514.06;5046750;28;20244;-82
2022/12/30 03:31:03;;;;;;;2.30;1.00;;;;;;;4.51;97.71;95518.75;5041486;28;20987;-81
2022/12/30 03:33:29;;;;;;;16.37;1.77;;;;;;;4.45;97.22;95516.63;5035399;28;20215;-82
2022/12/30 03:36:23;;;;;;;1.43;0.90;;;;;;;4.50;97.74;95506.78;5028668;28;20218;-82
2022/12/30 03:38:55;;;;;;;3.40;1.17;;;;;;;4.44;98.23;95505.50;5031247;28;20193;-80
2022/12/30 03:41:21;;;;;;;5.40;1.50;;;;;;;4.29;98.83;95495.50;5021778;28;20555;-81
2022/12/30 03:43:47;;;;;;;2.43;1.10;;;;;;;4.30;99.42;95495.38;5027663;28;20188;-81
2022/12/30 03:46:12;;;;;;;5.00;1.00;;;;;;;4.30;99.71;95499.72;5028163;28;20189;-79
2022/12/30 03:48:38;;;;;;;2.57;1.00;;;;;;;4.36;100.00;95502.66;5025282;28;20740;-80
2022/12/30 03:51:03;;;;;;;2.47;0.80;;;;;;;4.34;100.00;95501.16;5018345;28;20192;-80
2022/12/30 03:53:28;;;;;;;2.73;1.07;;;;;;;4.33;100.00;95486.63;5012852;28;20189;-79
2022/12/30 03:55:54;;;;;;;3.97;1.20;;;;;;;4.33;100.00;95474.63;5011608;28;20210;-79
2022/12/30 03:58:19;;;;;;;4.97;1.20;;;;;;;4.27;100.00;95480.19;5021979;28;20227;-81
2022/12/30 04:00:44;;;;;;;4.83;1.10;;;;;;;4.22;100.00;95488.22;5030196;28;20220;-80
2022/12/30 04:03:09;;;;;;;1.30;1.13;;;;;;;4.29;100.00;95483.47;5030253;28;20190;-79
2022/12/30 04:05:35;;;;;;;4.13;1.00;;;;;;;4.33;99.95;95487.47;5022984;28;20247;-80
2022/12/30 04:08:00;;;;;;;2.23;1.07;;;;;;;4.25;99.39;95482.06;5023965;28;20206;-81
2022/12/30 04:10:26;;;;;;;2.93;0.80;;;;;;;4.22;99.83;95480.53;5013313;28;20222;-81
2022/12/30 04:12:51;;;;;;;2.60;1.10;;;;;;;4.21;99.79;95478.88;5030441;28;20195;-82
2022/12/30 04:15:16;;;;;;;3.57;1.23;;;;;;;4.16;100.00;95467.31;5020916;28;20197;-80
2022/12/30 04:17:42;;;;;;;4.00;1.20;;;;;;;4.10;100.00;95465.19;4999398;28;20206;-80
2022/12/30 04:20:07;;;;;;;3.77;1.10;;;;;;;4.14;100.00;95467.41;5015597;28;20197;-80
2022/12/30 04:22:32;;;;;;;4.03;1.30;;;;;;;4.06;100.00;95466.31;5019524;28;20186;-81
2022/12/30 04:24:58;;;;;;;3.00;1.23;;;;;;;3.98;100.00;95465.13;5024792;28;20189;-81
2022/12/30 04:27:23;;;;;;;2.47;1.00;;;;;;;4.05;100.00;95470.63;5030787;28;20247;-81
2022/12/30 04:29:48;;;;;;;2.60;1.10;;;;;;;3.98;100.00;95466.88;5029622;28;20268;-80
2022/12/30 04:32:14;;;;;;;2.70;1.50;;;;;;;3.99;100.00;95468.50;5023162;28;20194;-80
2022/12/30 04:34:39;;;;;;;3.30;1.80;;;;;;;4.05;100.00;95464.66;5016562;28;20194;-82
2022/12/30 04:37:04;;;;;;;3.80;2.00;;;;;;;3.94;100.00;95455.16;5013384;28;20301;-80
2022/12/30 04:39:29;;;;;;;12.93;2.37;;;;;;;3.91;100.00;95445.94;5021192;28;20198;-80
2022/12/30 04:41:55;;;;;;;4.97;1.47;;;;;;;3.89;100.00;95449.56;5024303;28;20195;-80
2022/12/30 04:44:20;;;;;;;4.37;1.80;;;;;;;3.82;100.00;95444.03;5029300;28;20186;-80
2022/12/30 04:46:45;;;;;;;1.90;1.70;;;;;;;3.72;100.00;95445.59;5029022;28;20208;-80
2022/12/30 04:49:11;;;;;;;2.27;1.40;;;;;;;3.78;100.00;95446.91;5030390;28;20238;-81
2022/12/30 04:51:36;;;;;;;2.90;1.50;;;;;;;3.82;100.00;95454.28;5026558;28;20187;-80
2022/12/30 04:54:01;;;;;;;2.73;2.00;;;;;;;3.74;100.00;95461.72;5028381;28;20194;-80
2022/12/30 04:56:27;;;;;;;3.63;1.70;;;;;;;3.63;100.00;95462.47;5025559;28;20547;-81
2022/12/30 04:58:53;;;;;;;2.07;1.50;;;;;;;3.71;100.00;95456.81;5021072;28;20547;-80
2022/12/30 05:01:18;;;;;;;3.97;1.70;;;;;;;3.67;100.00;95463.06;5034771;28;20272;-80
2022/12/30 05:03:44;;;;;;;2.90;1.37;;;;;;;3.70;100.00;95455.97;5032800;28;20334;-80
2022/12/30 05:06:09;;;;;;;1.37;1.10;;;;;;;3.72;100.00;95452.50;5025859;28;20286;-81
2022/12/30 05:08:34;;;;;;;3.67;1.30;;;;;;;3.63;99.86;95453.97;5034680;28;20198;-81
2022/12/30 05:11:00;;;;;;;4.57;2.83;;;;;;;3.45;100.00;95450.94;5034075;28;20175;-80
2022/12/30 05:13:25;;;;;;;3.47;2.23;;;;;;;3.55;100.00;95453.69;5029696;28;20194;-81
2022/12/30 05:15:50;;;;;;;3.73;1.83;;;;;;;3.56;100.00;95455.31;5024449;28;20593;-81
2022/12/30 05:18:15;;;;;;;2.43;1.30;;;;;;;3.58;100.00;95456.84;5020196;28;20206;-81
2022/12/30 05:20:41;;;;;;;4.17;1.53;;;;;;;3.60;100.00;95464.44;5020732;28;20274;-81
2022/12/30 05:26:13;;;;;;;2.73;1.73;;;;;;;3.53;100.00;95458.88;5026485;28;20220;-82
2022/12/30 05:28:35;;;;;;;5.37;1.80;;;;;;;3.61;100.00;95474.59;5035053;28;20339;-80
2022/12/30 05:31:01;;;;;;;2.67;1.60;;;;;;;3.57;100.00;95465.47;5029441;28;20205;-80
2022/12/30 05:33:26;;;;;;;2.43;1.17;;;;;;;3.51;100.00;95465.88;5023097;28;20186;-80
2022/12/30 05:35:51;;;;;;;3.40;1.77;;;;;;;3.50;100.00;95471.94;5036795;28;20205;-81
2022/12/30 05:38:19;;;;;;;3.97;1.77;;;;;;;3.54;100.00;95475.97;5026064;28;20246;-81
2022/12/30 05:40:45;;;;;;;2.70;1.30;;;;;;;3.53;100.00;95468.34;5029307;28;20191;-81
2022/12/30 05:43:10;;;;;;;3.07;1.40;;;;;;;3.53;100.00;95474.28;5020905;28;20230;-81
2022/12/30 05:45:35;;;;;;;2.27;1.40;;;;;;;3.50;100.00;95474.53;5029002;28;20269;-80
2022/12/30 05:48:01;;;;;;;3.37;1.70;;;;;;;3.50;100.00;95471.13;5027349;28;20292;-80
2022/12/30 05:50:26;;;;;;;2.33;1.27;;;;;;;3.54;100.00;95470.84;5029170;28;20191;-81
2022/12/30 05:52:51;;;;;;;2.23;1.70;;;;;;;3.50;100.00;95478.84;5017440;28;20195;-80
2022/12/30 05:55:16;;;;;;;3.57;1.87;;;;;;;3.49;100.00;95477.19;5032472;28;20187;-81
2022/12/30 05:57:42;;;;;;;3.63;2.47;;;;;;;3.50;100.00;95476.28;5028110;28;20759;-80
2022/12/30 06:00:08;;;;;;;5.47;2.00;;;;;;;3.59;100.00;95481.59;5023015;28;20191;-81
2022/12/30 06:02:33;;;;;;;3.97;2.20;;;;;;;3.74;100.00;95491.72;5019313;28;20203;-82
2022/12/30 06:04:59;;;;;;;2.73;2.03;;;;;;;3.64;100.00;95481.28;5007138;28;20287;-81
2022/12/30 06:07:24;;;;;;;2.33;1.90;;;;;;;3.72;100.00;95480.75;5029542;28;20224;-80
2022/12/30 06:09:49;;;;;;;3.77;2.07;;;;;;;3.73;100.00;95480.63;5032684;28;20201;-81
2022/12/30 06:12:14;;;;;;;3.93;2.20;;;;;;;3.74;100.00;95477.13;5030411;28;20192;-80
2022/12/30 06:14:40;;;;;;;3.17;2.20;;;;;;;3.72;100.00;95481.56;5023558;28;20212;-81
2022/12/30 06:17:05;;;;;;;2.43;2.23;;;;;;;3.69;100.00;95476.63;5018770;28;20573;-80
2022/12/30 06:19:30;;;;;;;3.40;2.33;;;;;;;3.61;100.00;95479.72;5015399;28;20201;-80
2022/12/30 06:21:56;;;;;;;3.97;2.40;;;;;;;3.59;100.00;95494.41;5021954;28;20188;-80
2022/12/30 06:24:21;;;;;;;2.63;2.10;;;;;;;3.66;100.00;95489.69;5025661;28;20215;-80
2022/12/30 06:26:46;;;;;;;2.60;2.40;;;;;;;3.66;100.00;95497.38;5023443;28;20247;-79
2022/12/30 06:29:12;;;;;;;6.33;2.70;;;;;;;3.65;100.00;95488.06;5019842;28;20196;-80
2022/12/30 06:31:37;;;;;;;3.57;2.40;;;;;;;3.63;100.00;95484.78;5025570;28;20188;-81
2022/12/30 06:34:02;;;;;;;3.83;2.20;;;;;;;3.57;100.00;95468.03;5040820;28;20206;-80
2022/12/30 06:36:28;;;;;;;3.70;2.33;;;;;;;3.51;100.00;95465.88;5052249;28;20167;-80
2022/12/30 06:38:53;;;;;;;3.50;2.40;;;;;;;3.60;100.00;95465.25;5043444;28;20206;-81
2022/12/30 06:41:18;;;;;;;2.20;2.00;;;;;;;3.67;100.00;95458.75;5043561;28;20191;-80
2022/12/30 06:43:43;;;;;;;3.67;2.13;;;;;;;3.57;100.00;95462.91;5046551;28;20671;-82
2022/12/30 06:46:09;;;;;;;2.50;2.10;;;;;;;3.62;100.00;95465.97;5045651;28;20191;-82
2022/12/30 06:48:34;;;;;;;1.80;1.70;;;;;;;3.54;100.00;95465.69;5039282;28;20206;-81
2022/12/30 06:51:00;;;;;;;2.27;2.07;;;;;;;3.60;100.00;95461.84;5029550;28;20612;-81
2022/12/30 06:53:26;;;;;;;2.10;1.90;;;;;;;3.60;100.00;95472.94;5024803;28;20187;-81
2022/12/30 06:55:51;;;;;;;1.80;1.70;;;;;;;3.66;100.00;95480.22;5024339;28;20198;-81
2022/12/30 06:58:16;;;;;;;2.60;2.07;;;;;;;3.46;100.00;95480.81;5038137;28;20237;-82
2022/12/30 07:00:42;;;;;;;2.07;1.60;;;;;;;3.52;100.00;95476.97;5039689;28;20189;-80
2022/12/30 07:03:09;;;;;;;2.90;1.70;;;;;;;3.54;100.00;95473.41;5042579;28;20700;-82
2022/12/30 07:05:34;;;;;;;3.27;1.67;;;;;;;3.58;100.00;95464.53;5029503;28;20183;-85
2022/12/30 07:07:59;;;;;;;1.93;1.80;;;;;;;3.55;100.00;95459.63;5031290;28;20209;-85
2022/12/30 07:10:25;;;;;;;3.87;1.73;;;;;;;3.56;100.00;95463.84;5036385;28;20178;-84
2022/12/30 07:12:50;;;;;;;2.20;1.80;;;;;;;3.56;100.00;95463.00;5031654;28;20205;-85
2022/12/30 07:15:15;;;;;;;2.10;1.47;;;;;;;3.47;100.00;95464.47;5016878;28;20182;-86
2022/12/30 07:17:41;;;;;;;1.40;1.30;;;;;;;3.52;100.00;95464.97;5029631;28;20198;-85
2022/12/30 07:20:06;;;;;;;1.60;1.50;;;;;;;3.56;100.00;95465.59;5026112;28;20186;-85
2022/12/30 07:22:32;;;;;;;4.20;1.70;;;;;;;3.60;100.00;95462.69;5025090;28;20191;-84
2022/12/30 07:24:57;;;;;;;1.50;1.40;;;;;;;3.60;100.00;95456.72;5003819;28;20204;-84
2022/12/30 07:27:22;;;;;;;1.60;1.50;;;;;;;3.58;100.00;95456.84;5014164;28;20699;-84
2022/12/30 07:29:48;;;;;;;4.20;1.70;;;;;;;3.59;100.00;95450.78;5023241;28;20197;-87
2022/12/30 07:32:13;;;;;;;1.77;1.63;;;;;;;3.61;100.00;95454.03;5026691;28;20187;-86
2022/12/30 07:34:38;;;;;;;2.00;1.60;;;;;;;3.58;100.00;95443.19;5018608;28;20183;-85
2022/12/30 07:37:04;;;;;;;2.10;1.47;;;;;;;3.55;100.00;95451.94;5012027;28;20207;-86
2022/12/30 07:39:30;;;;;;;1.97;1.40;;;;;;;3.59;100.00;95450.78;5006808;28;20186;-86
2022/12/30 07:41:56;;;;;;;1.50;1.40;;;;;;;3.58;100.00;95438.88;5037070;28;20212;-85
2022/12/30 07:44:21;;;;;;;1.43;1.33;;;;;;;3.61;100.00;95441.19;5022139;28;20194;-86
2022/12/30 07:46:46;;;;;;;1.63;1.43;;;;;;;3.62;100.00;95427.47;5027220;28;20250;-84
2022/12/30 07:49:12;;;;;;;2.37;1.40;;;;;;;3.65;100.00;95426.41;5022851;28;20186;-85
2022/12/30 07:51:38;;;;;;;2.83;1.23;;;;;;;3.66;100.00;95433.19;5003038;28;20266;-86
2022/12/30 07:54:03;;;;;;;3.20;1.43;;;;;;;3.67;100.00;95438.22;5028055;28;20179;-86
2022/12/30 07:56:28;;;;;;;1.83;1.37;;;;;;;3.73;100.00;95443.84;5020589;28;20236;-84
2022/12/30 07:58:58;;;;;;;2.33;1.80;;;;;;;3.74;100.00;95441.19;5022057;28;20187;-85
2022/12/30 08:01:24;;;;;;;7.83;6.03;;;;;;;3.79;100.00;95443.41;5029744;28;20661;-86
2022/12/30 08:03:49;;;;;;;3.67;3.27;;;;;;;3.72;100.00;95437.09;5019408;28;20189;-86
2022/12/30 08:06:16;;;;;;;2.13;1.93;;;;;;;3.72;100.00;95437.09;5023424;28;20189;-84
2022/12/30 08:08:41;;;;;;;2.00;1.90;;;;;;;3.61;100.00;95441.19;5007870;28;20582;-84
2022/12/30 08:11:09;;;;;;;2.17;1.73;;;;;;;3.91;100.00;95439.97;5012818;28;20195;-84
2022/12/30 08:13:38;;;;;;;2.00;1.90;;;;;;;4.07;100.00;95440.53;5018718;28;20215;-85
2022/12/30 08:16:05;;;;;;;1.77;1.67;;;;;;;4.18;99.92;95429.47;5023846;28;20272;-86
2022/12/30 08:18:31;;;;;;;1.60;1.50;;;;;;;4.14;99.56;95415.19;5020787;28;20573;-85
2022/12/30 08:21:08;;;;;;;1.53;1.43;;;;;;;4.02;100.00;95424.59;5002338;28;20193;-85
2022/12/30 08:23:33;;;;;;;2.10;1.17;;;;;;;4.09;100.00;95428.38;5009396;28;20191;-87
2022/12/30 08:26:04;;;;;;;1.23;1.13;;;;;;;4.20;100.00;95423.28;5024182;28;20194;-83
2022/12/30 08:28:29;;;;;;;1.37;1.27;;;;;;;4.23;100.00;95422.22;5005987;28;20301;-84
2022/12/30 08:30:55;;;;;;;2.23;1.10;;;;;;;4.20;100.00;95418.13;5022936;28;20192;-85
2022/12/30 08:33:20;;;;;;;1.70;1.40;;;;;;;4.38;100.00;95412.56;5027228;28;20681;-84
2022/12/30 08:35:45;;;;;;;1.70;1.17;;;;;;;4.24;100.00;95417.00;5015111;28;20609;-84
2022/12/30 08:38:11;;;;;;;1.20;1.10;;;;;;;4.38;100.00;95415.13;5019499;28;20211;-84
2022/12/30 08:40:36;;;;;;;1.93;1.60;;;;;;;4.54;99.25;95413.91;5024190;28;20200;-85
2022/12/30 08:43:01;;;;;;;2.00;1.10;;;;;;;4.53;98.46;95404.53;5029415;28;20201;-83
2022/12/30 08:45:26;;;;;;;1.40;1.17;;;;;;;4.60;98.53;95401.53;5021870;28;20197;-85
2022/12/30 08:47:52;;;;;;;1.90;1.10;;;;;;;4.62;98.96;95392.75;5024444;28;20247;-85
2022/12/30 08:50:17;;;;;;;1.50;1.33;;;;;;;4.80;97.81;95386.22;5019346;28;20202;-83
2022/12/30 08:52:43;;;;;;;2.00;1.30;;;;;;;4.85;97.72;95385.84;5014915;28;20541;-84
2022/12/30 08:55:08;;;;;;;1.50;1.27;;;;;;;4.83;98.32;95383.41;5020098;28;20519;-85
2022/12/30 08:57:37;;;;;;;1.50;1.40;;;;;;;5.05;97.36;95382.59;5033506;28;20206;-84
2022/12/30 09:00:02;;;;;;;1.37;1.27;;;;;;;4.93;97.17;95382.69;5032726;28;20201;-83
2022/12/30 09:02:28;;;;;;;1.43;1.27;;;;;;;5.16;96.33;95381.75;5035690;28;20190;-83
2022/12/30 09:04:53;;;;;;;2.17;1.50;;;;;;;5.05;96.34;95379.22;5026628;28;20235;-83
2022/12/30 09:07:18;;;;;;;2.13;1.40;;;;;;;5.09;97.52;95380.59;5024689;28;20217;-83
2022/12/30 09:09:44;;;;;;;1.90;1.80;;;;;;;4.80;98.17;95380.25;5027390;28;20202;-84
2022/12/30 09:12:09;;;;;;;3.07;1.70;;;;;;;4.98;98.97;95385.75;5004249;28;20187;-84
2022/12/30 09:14:34;;;;;;;1.70;1.60;;;;;;;5.03;98.50;95381.06;5021581;28;20213;-83
2022/12/30 09:17:00;;;;;;;2.07;1.67;;;;;;;5.13;97.81;95389.72;5022650;28;20617;-84
2022/12/30 09:19:25;;;;;;;2.00;1.60;;;;;;;5.17;98.03;95391.13;5026118;28;20198;-84
2022/12/30 09:21:51;;;;;;;1.83;1.73;;;;;;;5.14;98.20;95390.56;5020367;28;20190;-84
2022/12/30 09:24:19;;;;;;;4.33;1.90;;;;;;;5.40;96.90;95384.19;5021048;28;20187;-83
2022/12/30 09:26:44;;;;;;;2.43;2.23;;;;;;;5.32;96.60;95382.22;5028668;28;20221;-83
2022/12/30 09:29:09;;;;;;;2.10;1.90;;;;;;;5.29;97.18;95382.44;5021257;28;20605;-84
2022/12/30 09:31:35;;;;;;;3.97;2.30;;;;;;;5.47;96.04;95369.06;5021465;28;20193;-84
2022/12/30 09:34:00;;;;;;;2.40;1.90;;;;;;;5.47;96.18;95369.06;5030740;28;20228;-84
2022/12/30 09:36:25;;;;;;;4.17;2.20;;;;;;;5.40;96.59;95372.13;5022377;28;20183;-84
2022/12/30 09:38:51;;;;;;;3.43;2.30;;;;;;;5.38;96.66;95362.88;5022856;28;20187;-83
2022/12/30 09:43:15;;;;;;;2.30;2.10;;;;;;;5.58;95.53;95374.22;5024175;28;20190;-84
2022/12/30 09:44:32;;;;;;;8.80;2.90;;;;;;;5.30;97.37;95373.81;5018913;28;20195;-83
2022/12/30 09:47:05;;;;;;;2.37;2.07;;;;;;;5.59;95.78;95362.97;5021849;28;20264;-85
2022/12/30 09:49:42;;;;;;;2.50;2.30;;;;;;;5.50;96.48;95355.97;5025713;28;20190;-84
2022/12/30 09:52:14;;;;;;;2.77;2.27;;;;;;;5.53;96.36;95358.28;5022434;28;20213;-85
2022/12/30 09:54:44;;;;;;;2.87;2.33;;;;;;;5.49;96.79;95342.28;5022420;28;20183;-84
2022/12/30 09:59:58;;;;;;;2.57;2.33;;;;;;;5.60;96.05;95339.66;5027365;28;20724;-84
2022/12/30 10:02:28;;;;;;;5.30;2.60;;;;;;;5.52;96.37;95331.72;5028574;28;20274;-83
2022/12/30 10:04:55;;;;;;;2.40;2.20;;;;;;;5.44;96.92;95338.41;5007700;28;20561;-85
2022/12/30 10:07:33;;;;;;;2.57;2.33;;;;;;;5.52;96.74;95326.56;5042936;28;20222;-84
2022/12/30 10:10:15;;;;;;;3.27;2.17;;;;;;;5.61;96.85;95304.41;5030649;28;20206;-85
2022/12/30 10:13:04;;;;;;;2.90;2.47;;;;;;;5.77;95.91;95304.81;5044770;28;20243;-84
2022/12/30 10:15:49;;;;;;;2.50;2.30;;;;;;;5.60;95.88;95308.75;5044896;28;20178;-83
2022/12/30 10:18:39;;;;;;;3.77;2.43;;;;;;;5.68;97.06;95308.13;5046447;28;20200;-83
2022/12/30 10:21:40;;;;;;;5.53;2.97;;;;;;;5.78;96.18;95295.31;5048853;28;20205;-84
2022/12/30 10:24:14;;;;;;;3.13;2.73;;;;;;;5.73;96.52;95293.09;5041376;28;20183;-85
2022/12/30 10:26:48;;;;;;;3.07;2.67;;;;;;;5.75;96.79;95288.66;5016068;28;20609;-83
2022/12/30 10:29:21;;;;;;;3.37;2.93;;;;;;;6.00;95.23;95289.25;5025733;28;20190;-85
2022/12/30 10:31:47;;;;;;;2.90;2.60;;;;;;;5.97;95.58;95288.56;5019166;28;20213;-84
2022/12/30 10:34:22;;;;;;;3.60;3.03;;;;;;;5.95;94.83;95293.03;5023212;28;20194;-84
2022/12/30 10:37:03;;;;;;;3.03;2.37;;;;;;;5.88;95.42;95286.69;5027325;28;20274;-85
2022/12/30 10:39:31;;;;;;;4.97;2.80;;;;;;;5.96;94.79;95289.50;5007102;28;20627;-84
2022/12/30 10:42:18;;;;;;;2.90;2.60;;;;;;;5.86;95.21;95288.59;5028928;28;20189;-85
2022/12/30 10:45:04;;;;;;;3.67;3.20;;;;;;;6.03;94.73;95283.84;5027051;28;20225;-84
2022/12/30 10:47:51;;;;;;;3.63;2.00;;;;;;;5.91;95.02;95286.47;5016322;28;20206;-84
2022/12/30 10:50:36;;;;;;;4.37;2.57;;;;;;;6.02;94.05;95282.22;5032367;28;20289;-85
2022/12/30 10:53:02;;;;;;;2.13;1.90;;;;;;;5.92;94.86;95269.28;5034315;28;20199;-85
2022/12/30 10:55:31;;;;;;;3.00;2.70;;;;;;;6.04;94.44;95275.19;5032675;28;20199;-85
2022/12/30 10:58:10;;;;;;;2.30;2.03;;;;;;;6.20;94.16;95280.69;5032966;28;20301;-85
2022/12/30 11:00:40;;;;;;;4.37;2.40;;;;;;;6.18;94.09;95278.25;5047332;28;20208;-86
2022/12/30 11:03:14;;;;;;;3.00;2.20;;;;;;;5.95;94.76;95279.31;5043421;28;20190;-86
2022/12/30 11:05:39;;;;;;;2.73;2.43;;;;;;;6.26;93.78;95272.44;5016872;28;20355;-84
2022/12/30 11:08:19;;;;;;;4.30;2.50;;;;;;;6.21;94.12;95265.09;5023229;28;20215;-84
2022/12/30 11:10:57;;;;;;;6.37;2.50;;;;;;;6.37;92.29;95261.25;5014235;28;20194;-84
2022/12/30 11:16:06;;;;;;;3.70;2.30;;;;;;;6.60;91.47;95246.38;5019423;28;20189;-84
2022/12/30 11:18:32;;;;;;;2.20;2.00;;;;;;;6.51;92.47;95246.22;5020365;28;20591;-84
2022/12/30 11:20:58;;;;;;;3.00;2.00;;;;;;;6.59;92.40;95237.03;5036592;28;20199;-86
2022/12/30 11:23:33;;;;;;;2.70;2.37;;;;;;;6.58;92.29;95237.97;5033344;28;20190;-85
2022/12/30 11:26:00;;;;;;;3.17;2.10;;;;;;;6.70;91.76;95224.00;5026889;28;20250;-85
2022/12/30 11:28:36;;;;;;;3.20;2.27;;;;;;;6.67;92.22;95232.03;5008939;28;20682;-85
2022/12/30 11:31:06;;;;;;;4.50;2.10;;;;;;;6.78;91.65;95224.16;5013834;28;20191;-84
2022/12/30 11:33:37;;;;;;;2.50;2.30;;;;;;;6.77;91.77;95223.34;5031294;28;20186;-84
2022/12/30 11:36:12;;;;;;;4.93;1.97;;;;;;;6.53;92.92;95223.69;5034910;28;20197;-85
2022/12/30 11:38:40;;;;;;;2.77;2.10;;;;;;;6.66;92.63;95220.06;5012015;28;20725;-84
2022/12/30 11:41:17;;;;;;;3.73;2.30;;;;;;;6.72;91.72;95222.94;5024750;28;20242;-84
2022/12/30 11:43:44;;;;;;;4.07;2.37;;;;;;;6.67;92.16;95224.28;5036167;28;20276;-84
2022/12/30 11:46:14;;;;;;;2.43;2.17;;;;;;;6.92;91.36;95215.25;5008549;28;20213;-85
2022/12/30 11:48:53;;;;;;;2.70;2.10;;;;;;;6.82;91.42;95202.31;5012423;28;20549;-86
2022/12/30 11:51:24;;;;;;;2.20;2.00;;;;;;;6.85;91.54;95201.22;5001082;28;20241;-84
2022/12/30 11:54:12;;;;;;;3.60;2.40;;;;;;;6.87;91.34;95194.97;5014190;28;20294;-84
2022/12/30 11:56:53;;;;;;;3.23;2.10;;;;;;;6.79;91.52;95190.47;5025933;28;20305;-85
2022/12/30 11:59:22;;;;;;;3.33;2.67;;;;;;;6.80;91.46;95188.72;5023605;28;20177;-85
2022/12/30 12:01:50;;;;;;;3.07;2.30;;;;;;;6.81;91.17;95185.22;5032143;28;20627;-85
2022/12/30 12:04:34;;;;;;;13.83;6.93;;;;;;;6.88;90.93;95188.06;5029389;28;20186;-85
2022/12/30 12:06:59;;;;;;;3.00;2.70;;;;;;;6.84;90.38;95187.50;5026475;28;20257;-84
2022/12/30 12:09:35;;;;;;;4.80;2.30;;;;;;;6.48;92.83;95182.00;5002299;28;20210;-86
2022/12/30 12:12:11;;;;;;;3.70;1.90;;;;;;;6.52;92.44;95167.06;5027057;28;20186;-85
2022/12/30 12:14:51;;;;;;;2.87;1.93;;;;;;;6.66;91.79;95178.78;4994760;28;20212;-84
2022/12/30 12:17:21;;;;;;;2.30;2.07;;;;;;;6.75;91.60;95157.34;5000126;28;20207;-85
2022/12/30 12:19:50;;;;;;;2.20;2.00;;;;;;;6.63;92.30;95155.84;5022619;28;20281;-84
2022/12/30 12:22:21;;;;;;;3.53;2.20;;;;;;;6.72;92.80;95162.78;5006430;28;20192;-85
2022/12/30 12:24:51;;;;;;;2.97;2.00;;;;;;;6.66;92.05;95160.72;5020750;28;20205;-86
2022/12/30 12:27:17;;;;;;;3.27;2.20;;;;;;;6.70;92.93;95154.34;5035404;28;20202;-84
2022/12/30 12:29:44;;;;;;;2.70;2.50;;;;;;;6.71;92.53;95161.94;5020135;28;20178;-86
2022/12/30 12:32:42;;;;;;;5.90;5.50;;;;;;;6.85;92.74;95163.34;5018509;28;20240;-84
2022/12/30 12:35:10;;;;;;;3.60;3.30;;;;;;;6.83;91.45;95165.25;5020786;28;20252;-84
2022/12/30 12:37:52;;;;;;;2.37;2.17;;;;;;;6.97;91.86;95162.25;5026774;28;20212;-85
2022/12/30 12:40:56;;;;;;;4.83;3.13;;;;;;;6.93;91.91;95158.31;5020985;28;20190;-85
2022/12/30 12:43:40;;;;;;;3.17;2.13;;;;;;;6.77;92.84;95160.59;4964830;28;20196;-85
2022/12/30 12:46:23;;;;;;;3.23;1.83;;;;;;;6.45;93.92;95153.91;4974873;28;20251;-85
2022/12/30 12:49:07;;;;;;;4.00;3.60;;;;;;;6.62;94.24;95149.03;4978070;28;20311;-85